Pagrindinis puslapis
METAR-TAF:

METAR-TAF

Oro uostai :

Brevig Mission, Aliaska, Jungtinės Amerikos Valstijos

platuma: 65-19-53N, ilguma: 166-27-57W, Aukštis: 11 m

Dabartinis oras

Ataskaita buvo paskelbta 16 minutes, ne 14:56 UTC
Ramus vėjas
Temperatūra -1°C
Drėgmė 100%
Slėgis 1021 hPa
Matomumas: 16.1 km
Apsiniaukę ne aukštis 300 ft

METAR: PFKT 121456Z AUTO 00000KT 10SM OVC003 M01/M01 A3014 RMK AO2 SLP208 T10061011 51004 FZRANO

Laikas: 07:12 (15:12 UTC)


TAF: trūkstamas

Orai ataskaitas ir orų prognozės (METAR, TAF).

turimą stotys yra geltonos ir raudonos taškus žemėlapyje.

Perkelti pele per norėdami pamatyti stoties vardą.

Tada spustelėkite, norėdami matyti oro stebėjimo ir prognozės.

Norėdami pakeisti žemėlapį: spustelėkite ant žalios mygtukų su juodo kryžiaus žemyn,; žalią mygtuką su brūkšneliu, jei norite nutolinti; arba žalių rodyklių gretimoms žemėlapius.


METAR-TAF: